Aviation Digital Data Service (ADDS)

Output produced by METARs form (0326 UTC 30 May 2017)
found at http://www.aviationweather.gov/adds/metars/
 
TAF EEEI 292330Z 3000/3024 VRB02KT 9999 FEW020 
     BECMG 3018/3020 19006KT 
     TEMPO 3018/3024 4000 SHRA SCT010CB BKN017
       
EEKA 300250Z 14003KT CAVOK 06/05 Q1012
TAF EEKA 300300Z 3004/3010 16010KT 9999 SCT030
       
EEKE 300250Z AUTO 01004KT 9999NDV NCD 05/05 Q1012
EETN 300320Z 00000KT CAVOK 07/05 Q1012
TAF EETN 292330Z 3000/3024 VRB02KT 9999 SCT030 
     BECMG 3014/3016 15010KT 
     PROB40 
     TEMPO 3015/3018 5000 RA BKN015 
     TEMPO 3018/3024 4000 SHRA BKN012 SCT020CB
       
EETU 300250Z AUTO 31004KT 270V350 9999 NCD 05/03 Q1011